createdAt,value
2022-11-15T00:00:29.235Z,100439.47
2022-11-15T00:02:55.377Z,100443.75
2022-11-15T00:05:21.522Z,100431.94
2022-11-15T00:07:56.189Z,100426.72
2022-11-15T00:10:22.593Z,100434.56
2022-11-15T00:12:48.718Z,100422.41
2022-11-15T00:15:14.870Z,100431.66
2022-11-15T00:17:41.013Z,100434.56
2022-11-15T00:20:07.198Z,100433.78
2022-11-15T00:22:33.331Z,100436.16
2022-11-15T00:24:59.462Z,100435.53
2022-11-15T00:27:25.602Z,100432.91
2022-11-15T00:29:51.715Z,100424.16
2022-11-15T00:32:17.853Z,100423.47
2022-11-15T00:34:44.017Z,100418.13
2022-11-15T00:37:10.160Z,100415.16
2022-11-15T00:39:36.325Z,100417.34
2022-11-15T00:42:02.446Z,100422.41
2022-11-15T00:44:28.570Z,100418.31
2022-11-15T00:46:54.715Z,100404.78
2022-11-15T00:49:20.840Z,100412.53
2022-11-15T00:51:46.969Z,100405.75
2022-11-15T00:54:13.135Z,100401.47
2022-11-15T00:56:39.257Z,100397.09
2022-11-15T00:59:05.362Z,100397.28
2022-11-15T01:01:31.541Z,100407.81
2022-11-15T01:04:01.271Z,100410.34
2022-11-15T01:06:27.863Z,100406.44
2022-11-15T01:08:54.025Z,100401.75
2022-11-15T01:11:20.128Z,100397.81
2022-11-15T01:13:46.241Z,100393.72
2022-11-15T01:16:12.381Z,100400.78
2022-11-15T01:18:38.584Z,100401.38
2022-11-15T01:21:04.704Z,100402.69
2022-11-15T01:23:31.257Z,100389.28
2022-11-15T01:25:57.599Z,100390.09
2022-11-15T01:28:23.757Z,100388.66
2022-11-15T01:30:49.898Z,100384.72
2022-11-15T01:33:16.043Z,100385.56
2022-11-15T01:35:42.155Z,100379.72
2022-11-15T01:38:08.326Z,100392.88
2022-11-15T01:40:34.458Z,100388.25
2022-11-15T01:43:00.595Z,100381.75
2022-11-15T01:45:26.743Z,100380.38
2022-11-15T01:47:52.868Z,100378.78
2022-11-15T01:50:19.015Z,100377.03
2022-11-15T01:52:45.141Z,100366.63
2022-11-15T01:55:11.296Z,100370.81
2022-11-15T01:57:37.457Z,100370.03
2022-11-15T02:00:03.599Z,100369.88
2022-11-15T02:02:29.717Z,100364.63
2022-11-15T02:04:55.856Z,100373.22
2022-11-15T02:07:22.061Z,100357.59
2022-11-15T02:09:48.226Z,100364.69
2022-11-15T02:12:14.377Z,100362.69
2022-11-15T02:14:40.531Z,100343.22
2022-11-15T02:17:06.644Z,100343.31
2022-11-15T02:19:32.804Z,100342.06
2022-11-15T02:21:58.935Z,100341.25
2022-11-15T02:24:25.061Z,100338.56
2022-11-15T02:26:51.195Z,100330.63
2022-11-15T02:29:17.315Z,100331.41
2022-11-15T02:31:43.436Z,100324.69
2022-11-15T02:34:09.593Z,100325.88
2022-11-15T02:36:35.709Z,100320.16
2022-11-15T02:39:01.832Z,100315.22
2022-11-15T02:41:27.986Z,100316.25
2022-11-15T02:43:54.114Z,100307.94
2022-11-15T02:46:20.254Z,100308.31
2022-11-15T02:48:46.402Z,100308.50
2022-11-15T02:51:12.509Z,100310.53
2022-11-15T02:53:38.644Z,100303.81
2022-11-15T02:56:04.786Z,100310.16
2022-11-15T02:58:30.939Z,100302.28
2022-11-15T03:00:57.128Z,100296.16
2022-11-15T03:03:23.312Z,100305.69
2022-11-15T03:05:49.435Z,100303.09
2022-11-15T03:08:15.576Z,100297.91
2022-11-15T03:10:41.733Z,100295.19
2022-11-15T03:13:07.862Z,100290.09
2022-11-15T03:15:33.988Z,100294.41
2022-11-15T03:18:00.114Z,100284.00
2022-11-15T03:20:26.232Z,100287.44
2022-11-15T03:22:52.394Z,100290.16
2022-11-15T03:25:18.520Z,100282.50
2022-11-15T03:27:44.661Z,100294.72
2022-11-15T03:30:10.789Z,100286.84
2022-11-15T03:32:36.911Z,100291.16
2022-11-15T03:35:03.039Z,100283.88
2022-11-15T03:37:29.199Z,100289.66
2022-11-15T03:39:55.336Z,100290.25
2022-11-15T03:42:21.455Z,100283.75
2022-11-15T03:44:47.585Z,100272.09
2022-11-15T03:47:13.741Z,100279.69
2022-11-15T03:49:39.866Z,100276.84
2022-11-15T03:52:05.997Z,100281.91
2022-11-15T03:54:32.142Z,100288.59
2022-11-15T03:56:58.290Z,100288.41
2022-11-15T03:59:24.457Z,100290.66
2022-11-15T04:01:50.576Z,100287.91
2022-11-15T04:04:16.682Z,100290.31
2022-11-15T04:06:42.823Z,100277.31
2022-11-15T04:09:08.968Z,100279.84
2022-11-15T04:11:35.087Z,100280.66
2022-11-15T04:14:01.343Z,100280.63
2022-11-15T04:16:27.460Z,100283.91
2022-11-15T04:18:53.610Z,100286.47
2022-11-15T04:21:20.573Z,100284.53
2022-11-15T04:23:46.731Z,100272.38
2022-11-15T04:26:12.891Z,100272.25
2022-11-15T04:28:39.058Z,100267.88
2022-11-15T04:31:05.181Z,100269.56
2022-11-15T04:33:31.536Z,100270.09
2022-11-15T04:35:57.844Z,100271.69
2022-11-15T04:38:23.973Z,100270.81
2022-11-15T04:40:50.084Z,100270.00
2022-11-15T04:43:16.217Z,100269.94
2022-11-15T04:45:42.339Z,100262.91
2022-11-15T04:48:08.471Z,100262.69
2022-11-15T04:50:34.624Z,100257.53
2022-11-15T04:53:00.749Z,100254.16
2022-11-15T04:55:26.864Z,100254.22
2022-11-15T04:57:53.002Z,100255.09
2022-11-15T05:00:19.140Z,100250.69
2022-11-15T05:02:45.593Z,100247.19
2022-11-15T05:05:11.713Z,100240.28
2022-11-15T05:07:37.892Z,100246.50
2022-11-15T05:10:04.050Z,100238.75
2022-11-15T05:12:30.205Z,100234.88
2022-11-15T05:14:56.336Z,100241.28
2022-11-15T05:17:22.482Z,100233.69
2022-11-15T05:19:48.629Z,100231.06
2022-11-15T05:22:14.753Z,100223.25
2022-11-15T05:24:40.902Z,100232.41
2022-11-15T05:27:07.030Z,100227.09
2022-11-15T05:29:33.168Z,100237.19
2022-11-15T05:31:59.297Z,100234.72
2022-11-15T05:34:25.438Z,100233.09
2022-11-15T05:36:51.571Z,100230.56
2022-11-15T05:39:17.691Z,100237.53
2022-11-15T05:41:43.818Z,100238.47
2022-11-15T05:44:09.935Z,100237.47
2022-11-15T05:46:36.079Z,100233.94
2022-11-15T05:49:02.199Z,100236.47
2022-11-15T05:51:28.329Z,100223.38
2022-11-15T05:53:54.475Z,100230.69
2022-11-15T05:56:20.596Z,100237.66
2022-11-15T05:58:46.756Z,100229.53
2022-11-15T06:01:12.884Z,100227.59
2022-11-15T06:03:39.016Z,100226.19
2022-11-15T06:06:05.168Z,100226.72
2022-11-15T06:08:31.288Z,100223.41
2022-11-15T06:10:57.425Z,100224.13
2022-11-15T06:13:23.572Z,100227.06
2022-11-15T06:15:49.693Z,100226.72
2022-11-15T06:18:15.851Z,100221.44
2022-11-15T06:20:41.993Z,100223.13
2022-11-15T06:23:08.092Z,100230.13
2022-11-15T06:25:34.246Z,100231.00
2022-11-15T06:28:00.378Z,100233.88
2022-11-15T06:30:26.517Z,100236.72
2022-11-15T06:32:52.678Z,100237.31
2022-11-15T06:35:18.820Z,100229.88
2022-11-15T06:37:44.959Z,100232.94
2022-11-15T06:40:11.108Z,100229.88
2022-11-15T06:42:37.261Z,100230.09
2022-11-15T06:45:03.387Z,100233.53
2022-11-15T06:47:29.536Z,100222.19
2022-11-15T06:49:55.719Z,100226.50
2022-11-15T06:52:21.831Z,100226.19
2022-11-15T06:54:47.956Z,100226.09
2022-11-15T06:57:14.108Z,100222.69
2022-11-15T06:59:40.839Z,100220.06
2022-11-15T07:02:07.128Z,100218.28
2022-11-15T07:04:33.260Z,100214.00
2022-11-15T07:06:59.528Z,100218.19
2022-11-15T07:09:25.670Z,100214.63
2022-11-15T07:11:51.794Z,100223.06
2022-11-15T07:14:17.952Z,100230.56
2022-11-15T07:16:44.115Z,100232.03
2022-11-15T07:19:10.281Z,100232.19
2022-11-15T07:21:36.422Z,100225.63
2022-11-15T07:24:02.568Z,100232.06
2022-11-15T07:26:28.699Z,100227.25
2022-11-15T07:28:55.020Z,100232.28
2022-11-15T07:31:21.167Z,100233.06
2022-11-15T07:33:47.284Z,100235.34
2022-11-15T07:36:13.585Z,100232.41
2022-11-15T07:38:43.069Z,100230.66
2022-11-15T07:41:09.404Z,100233.25
2022-11-15T07:43:35.568Z,100233.94
2022-11-15T07:46:01.694Z,100235.31
2022-11-15T07:48:40.211Z,100229.84
2022-11-15T07:51:13.878Z,100239.81
2022-11-15T07:53:40.382Z,100244.94
2022-11-15T07:56:06.518Z,100236.34
2022-11-15T07:58:32.666Z,100244.00
2022-11-15T08:00:58.899Z,100241.31
2022-11-15T08:03:25.171Z,100231.03
2022-11-15T08:05:51.318Z,100237.19
2022-11-15T08:08:17.427Z,100233.03
2022-11-15T08:10:43.567Z,100245.03
2022-11-15T08:13:09.709Z,100233.38
2022-11-15T08:15:35.894Z,100230.22
2022-11-15T08:18:02.020Z,100221.16
2022-11-15T08:20:28.183Z,100226.13
2022-11-15T08:22:54.297Z,100218.97
2022-11-15T08:25:20.434Z,100216.09
2022-11-15T08:27:46.578Z,100217.09
2022-11-15T08:30:12.695Z,100216.34
2022-11-15T08:32:38.831Z,100221.06
2022-11-15T08:35:04.989Z,100212.22
2022-11-15T08:37:31.120Z,100208.66
2022-11-15T08:39:57.240Z,100204.88
2022-11-15T08:42:23.393Z,100201.88
2022-11-15T08:44:49.521Z,100196.28
2022-11-15T08:47:15.672Z,100199.16
2022-11-15T08:49:41.793Z,100192.22
2022-11-15T08:52:07.926Z,100195.59
2022-11-15T08:54:34.093Z,100193.56
2022-11-15T08:57:00.226Z,100191.81
2022-11-15T08:59:26.359Z,100192.72
2022-11-15T09:01:52.591Z,100204.03
2022-11-15T09:04:18.777Z,100205.44
2022-11-15T09:06:44.988Z,100201.38
2022-11-15T09:09:11.105Z,100211.56
2022-11-15T09:11:37.257Z,100203.19
2022-11-15T09:14:03.423Z,100216.47
2022-11-15T09:16:29.545Z,100205.75
2022-11-15T09:18:55.667Z,100201.28
2022-11-15T09:21:21.841Z,100192.34
2022-11-15T09:23:51.077Z,100196.50
2022-11-15T09:26:17.205Z,100188.66
2022-11-15T09:28:43.335Z,100191.06
2022-11-15T09:31:09.487Z,100193.63
2022-11-15T09:33:35.968Z,100189.97
2022-11-15T09:36:02.175Z,100194.25
2022-11-15T09:38:28.294Z,100191.13
2022-11-15T09:40:54.452Z,100185.13
2022-11-15T09:43:20.607Z,100178.06
2022-11-15T09:45:46.753Z,100182.25
2022-11-15T09:48:12.903Z,100187.31
2022-11-15T09:50:39.011Z,100177.91
2022-11-15T09:53:05.164Z,100177.50
2022-11-15T09:55:31.280Z,100181.25
2022-11-15T09:57:57.436Z,100172.94
2022-11-15T10:00:45.362Z,100171.41
2022-11-15T10:03:09.685Z,100175.56
2022-11-15T10:05:35.839Z,100176.38
2022-11-15T10:08:02.015Z,100173.66
2022-11-15T10:10:29.764Z,100173.69
2022-11-15T10:12:55.904Z,100161.78
2022-11-15T10:15:22.056Z,100161.38
2022-11-15T10:17:48.181Z,100164.53
2022-11-15T10:20:14.323Z,100168.00
2022-11-15T10:22:40.481Z,100161.34
2022-11-15T10:25:06.610Z,100154.84
2022-11-15T10:27:32.773Z,100153.47
2022-11-15T10:29:58.920Z,100154.59
2022-11-15T10:32:25.069Z,100143.19
2022-11-15T10:34:51.207Z,100147.88
2022-11-15T10:37:17.347Z,100148.06
2022-11-15T10:39:43.501Z,100145.44
2022-11-15T10:42:12.853Z,100131.94
2022-11-15T10:44:41.449Z,100135.53
2022-11-15T10:47:07.605Z,100135.03
2022-11-15T10:49:33.780Z,100134.28
2022-11-15T10:51:59.929Z,100122.94
2022-11-15T10:54:26.051Z,100123.78
2022-11-15T10:56:52.214Z,100121.56
2022-11-15T10:59:18.388Z,100108.88
2022-11-15T11:01:44.583Z,100107.84
2022-11-15T11:04:10.765Z,100103.84
2022-11-15T11:06:36.881Z,100100.56
2022-11-15T11:09:03.066Z,100099.63
2022-11-15T11:11:29.196Z,100099.75
2022-11-15T11:13:55.322Z,100082.31
2022-11-15T11:16:21.485Z,100083.91
2022-11-15T11:18:47.623Z,100073.19
2022-11-15T11:21:13.737Z,100070.94
2022-11-15T11:23:39.908Z,100070.59
2022-11-15T11:26:06.076Z,100063.13
2022-11-15T11:28:32.535Z,100060.03
2022-11-15T11:30:58.843Z,100053.72
2022-11-15T11:33:24.982Z,100046.16
2022-11-15T11:35:51.108Z,100039.91
2022-11-15T11:38:17.232Z,100045.63
2022-11-15T11:40:43.374Z,100034.44
2022-11-15T11:43:09.493Z,100030.53
2022-11-15T11:45:35.634Z,100036.81
2022-11-15T11:48:01.792Z,100029.28
2022-11-15T11:50:27.943Z,100031.41
2022-11-15T11:52:54.105Z,100029.31
2022-11-15T11:55:20.227Z,100022.31
2022-11-15T11:57:46.365Z,100021.47
2022-11-15T12:00:12.568Z,100018.59
2022-11-15T12:02:38.812Z,100020.28
2022-11-15T12:05:05.043Z,100014.63
2022-11-15T12:07:31.258Z,99994.00
2022-11-15T12:09:57.535Z,99992.19
2022-11-15T12:12:23.667Z,99989.47
2022-11-15T12:14:49.827Z,99992.34
2022-11-15T12:17:15.978Z,99978.22
2022-11-15T12:19:42.111Z,99969.34
2022-11-15T12:22:08.259Z,99969.31
2022-11-15T12:24:34.411Z,99970.88
2022-11-15T12:27:00.568Z,99964.84
2022-11-15T12:29:26.697Z,99961.13
2022-11-15T12:31:52.830Z,99956.59
2022-11-15T12:34:19.865Z,99955.66
2022-11-15T12:36:45.999Z,99947.00
2022-11-15T12:39:12.157Z,99944.59
2022-11-15T12:41:38.307Z,99945.66
2022-11-15T12:44:04.468Z,99949.69
2022-11-15T12:46:30.601Z,99942.59
2022-11-15T12:48:56.746Z,99930.28
2022-11-15T12:51:22.906Z,99936.22
2022-11-15T12:53:49.075Z,99941.03
2022-11-15T12:56:15.265Z,99943.00
2022-11-15T12:58:41.389Z,99945.28
2022-11-15T13:01:07.531Z,99944.00
2022-11-15T13:03:33.699Z,99935.66
2022-11-15T13:05:59.852Z,99933.16
2022-11-15T13:08:26.020Z,99936.03
2022-11-15T13:10:52.159Z,99929.81
2022-11-15T13:13:18.309Z,99918.63
2022-11-15T13:15:44.501Z,99910.50
2022-11-15T13:18:10.644Z,99919.16
2022-11-15T13:20:36.776Z,99913.53
2022-11-15T13:23:02.945Z,99900.91
2022-11-15T13:25:29.122Z,99913.97
2022-11-15T13:27:55.264Z,99905.25
2022-11-15T13:30:21.500Z,99898.22
2022-11-15T13:32:47.684Z,99892.59
2022-11-15T13:35:13.834Z,99892.59
2022-11-15T13:37:41.600Z,99886.09
2022-11-15T13:40:07.809Z,99876.84
2022-11-15T13:42:33.970Z,99868.28
2022-11-15T13:45:00.153Z,99871.94
2022-11-15T13:47:26.349Z,99865.75
2022-11-15T13:49:52.473Z,99864.38
2022-11-15T13:52:18.616Z,99863.22
2022-11-15T13:54:44.813Z,99855.28
2022-11-15T13:57:10.977Z,99847.03
2022-11-15T13:59:37.175Z,99847.84
2022-11-15T14:02:03.454Z,99843.34
2022-11-15T14:04:29.654Z,99843.53
2022-11-15T14:06:55.863Z,99836.59
2022-11-15T14:09:22.130Z,99833.38
2022-11-15T14:11:48.308Z,99825.56
2022-11-15T14:17:04.905Z,99820.31
2022-11-15T14:19:31.041Z,99809.69
2022-11-15T14:21:57.218Z,99804.56
2022-11-15T14:24:23.411Z,99812.31
2022-11-15T14:26:49.563Z,99801.50
2022-11-15T14:29:15.750Z,99805.75
2022-11-15T14:31:43.909Z,99800.09
2022-11-15T14:34:10.322Z,99791.94
2022-11-15T14:36:36.463Z,99779.69
2022-11-15T14:39:02.585Z,99775.88
2022-11-15T14:41:28.757Z,99780.63
2022-11-15T14:43:54.913Z,99779.19
2022-11-15T14:46:21.035Z,99767.56
2022-11-15T14:48:47.181Z,99765.78
2022-11-15T14:51:13.338Z,99760.72
2022-11-15T14:53:39.504Z,99751.63
2022-11-15T14:56:05.619Z,99745.66
2022-11-15T14:58:32.107Z,99743.25
2022-11-15T15:00:58.456Z,99735.78
2022-11-15T15:03:24.608Z,99736.41
2022-11-15T15:05:50.720Z,99731.47
2022-11-15T15:08:16.999Z,99724.72
2022-11-15T15:10:43.301Z,99714.44
2022-11-15T15:13:09.468Z,99710.06
2022-11-15T15:15:35.607Z,99715.78
2022-11-15T15:18:01.758Z,99717.66
2022-11-15T15:20:27.891Z,99718.63
2022-11-15T15:22:54.008Z,99717.91
2022-11-15T15:25:20.158Z,99712.88
2022-11-15T15:27:46.307Z,99706.59
2022-11-15T15:30:12.454Z,99709.63
2022-11-15T15:32:38.604Z,99706.81
2022-11-15T15:35:04.740Z,99706.19
2022-11-15T15:37:30.857Z,99699.19
2022-11-15T15:39:57.016Z,99701.19
2022-11-15T15:42:23.141Z,99694.50
2022-11-15T15:44:49.268Z,99698.22
2022-11-15T15:47:15.439Z,99700.84
2022-11-15T15:49:41.553Z,99688.31
2022-11-15T15:52:07.687Z,99693.84
2022-11-15T15:54:33.829Z,99687.03
2022-11-15T15:56:59.954Z,99678.00
2022-11-15T15:59:26.145Z,99680.63
2022-11-15T16:01:53.356Z,99672.66
2022-11-15T16:04:19.480Z,99654.44
2022-11-15T16:06:45.652Z,99656.94
2022-11-15T16:09:16.427Z,99655.28
2022-11-15T16:11:42.955Z,99654.44
2022-11-15T16:14:09.084Z,99660.53
2022-11-15T16:16:35.273Z,99658.31
2022-11-15T16:19:01.407Z,99653.41
2022-11-15T16:21:27.531Z,99649.81
2022-11-15T16:23:53.720Z,99646.47
2022-11-15T16:26:19.842Z,99646.81
2022-11-15T16:28:45.980Z,99642.25
2022-11-15T16:31:12.096Z,99638.19
2022-11-15T16:33:38.234Z,99628.75
2022-11-15T16:36:04.363Z,99635.84
2022-11-15T16:38:30.851Z,99634.03
2022-11-15T16:40:57.231Z,99636.13
2022-11-15T16:43:23.377Z,99629.44
2022-11-15T16:45:49.515Z,99620.88
2022-11-15T16:48:15.628Z,99612.03
2022-11-15T16:50:41.776Z,99610.59
2022-11-15T16:53:07.912Z,99605.97
2022-11-15T16:55:34.033Z,99606.34
2022-11-15T16:58:00.208Z,99611.00
2022-11-15T17:00:26.340Z,99610.66
2022-11-15T17:02:52.460Z,99612.09
2022-11-15T17:05:20.277Z,99608.03
2022-11-15T17:07:46.625Z,99597.78
2022-11-15T17:10:12.786Z,99594.56
2022-11-15T17:12:39.007Z,99589.19
2022-11-15T17:15:05.146Z,99583.25
2022-11-15T17:17:31.296Z,99578.50
2022-11-15T17:19:57.478Z,99572.63
2022-11-15T17:22:23.637Z,99574.63
2022-11-15T17:24:49.760Z,99568.22
2022-11-15T17:27:15.896Z,99582.06
2022-11-15T17:29:42.079Z,99579.44
2022-11-15T17:32:08.223Z,99573.16
2022-11-15T17:34:34.364Z,99569.22
2022-11-15T17:37:00.475Z,99575.03
2022-11-15T17:39:26.615Z,99573.91
2022-11-15T17:41:52.783Z,99568.06
2022-11-15T17:44:18.948Z,99567.22
2022-11-15T17:46:45.079Z,99554.25
2022-11-15T17:49:11.237Z,99569.84
2022-11-15T17:51:37.378Z,99571.09
2022-11-15T17:54:03.503Z,99567.72
2022-11-15T17:56:29.687Z,99560.16
2022-11-15T17:58:55.811Z,99561.22
2022-11-15T18:01:22.111Z,99558.03
2022-11-15T18:03:48.328Z,99568.84
2022-11-15T18:06:14.446Z,99563.03
2022-11-15T18:08:40.614Z,99569.66
2022-11-15T18:11:06.797Z,99557.13
2022-11-15T18:13:33.174Z,99556.97
2022-11-15T18:15:59.580Z,99564.28
2022-11-15T18:18:25.720Z,99548.56
2022-11-15T18:20:51.875Z,99553.78
2022-11-15T18:23:18.063Z,99548.44
2022-11-15T18:25:44.710Z,99548.31
2022-11-15T18:28:10.847Z,99546.03
2022-11-15T18:30:37.011Z,99544.91
2022-11-15T18:33:03.220Z,99538.56
2022-11-15T18:35:29.417Z,99528.09
2022-11-15T18:37:55.593Z,99538.44
2022-11-15T18:40:21.860Z,99532.72
2022-11-15T18:42:48.111Z,99530.09
2022-11-15T18:45:14.260Z,99533.78
2022-11-15T18:47:40.415Z,99542.31
2022-11-15T18:50:06.535Z,99534.50
2022-11-15T18:52:32.705Z,99531.28
2022-11-15T18:54:58.869Z,99521.72
2022-11-15T18:57:25.014Z,99530.66
2022-11-15T18:59:51.312Z,99524.69
2022-11-15T19:02:17.494Z,99525.19
2022-11-15T19:04:43.668Z,99511.88
2022-11-15T19:07:09.849Z,99512.50
2022-11-15T19:09:36.058Z,99514.88
2022-11-15T19:12:02.238Z,99512.25
2022-11-15T19:14:28.647Z,99520.56
2022-11-15T19:16:54.802Z,99522.31
2022-11-15T19:19:20.991Z,99522.03
2022-11-15T19:21:47.124Z,99514.41
2022-11-15T19:24:13.358Z,99516.84
2022-11-15T19:26:39.674Z,99512.75
2022-11-15T19:29:05.840Z,99508.06
2022-11-15T19:31:31.994Z,99508.59
2022-11-15T19:33:58.125Z,99505.97
2022-11-15T19:36:24.277Z,99503.56
2022-11-15T19:38:50.438Z,99505.78
2022-11-15T19:41:16.679Z,99497.31
2022-11-15T19:43:42.809Z,99498.63
2022-11-15T19:46:08.922Z,99501.06
2022-11-15T19:48:35.072Z,99504.50
2022-11-15T19:51:01.189Z,99507.34
2022-11-15T19:53:31.738Z,99505.13
2022-11-15T19:56:00.860Z,99510.56
2022-11-15T19:58:26.986Z,99511.09
2022-11-15T20:00:53.184Z,99511.31
2022-11-15T20:03:19.336Z,99504.38
2022-11-15T20:05:45.518Z,99496.31
2022-11-15T20:08:11.663Z,99499.16
2022-11-15T20:10:37.790Z,99497.38
2022-11-15T20:13:03.946Z,99490.47
2022-11-15T20:15:30.071Z,99484.94
2022-11-15T20:17:56.217Z,99491.84
2022-11-15T20:20:22.369Z,99478.66
2022-11-15T20:22:48.500Z,99481.50
2022-11-15T20:25:14.716Z,99476.28
2022-11-15T20:27:40.884Z,99476.91
2022-11-15T20:30:06.997Z,99475.03
2022-11-15T20:32:33.186Z,99471.06
2022-11-15T20:34:59.326Z,99467.91
2022-11-15T20:37:25.445Z,99466.88
2022-11-15T20:39:51.620Z,99461.09
2022-11-15T20:42:17.763Z,99454.84
2022-11-15T20:44:43.900Z,99448.13
2022-11-15T20:47:10.052Z,99449.81
2022-11-15T20:49:36.177Z,99442.16
2022-11-15T20:52:02.288Z,99444.16
2022-11-15T20:54:28.955Z,99435.84
2022-11-15T20:56:55.111Z,99434.53
2022-11-15T20:59:21.277Z,99427.66
2022-11-15T21:01:47.454Z,99426.28
2022-11-15T21:04:13.688Z,99429.81
2022-11-15T21:06:41.469Z,99422.94
2022-11-15T21:09:10.791Z,99427.53
2022-11-15T21:11:36.964Z,99434.75
2022-11-15T21:14:08.756Z,99436.03
2022-11-15T21:16:35.546Z,99432.72
2022-11-15T21:19:01.670Z,99420.03
2022-11-15T21:21:27.844Z,99432.50
2022-11-15T21:23:53.973Z,99435.66
2022-11-15T21:26:20.144Z,99426.66
2022-11-15T21:28:46.600Z,99425.41
2022-11-15T21:31:12.714Z,99422.41
2022-11-15T21:33:38.836Z,99424.38
2022-11-15T21:36:04.954Z,99424.91
2022-11-15T21:38:31.411Z,99420.00
2022-11-15T21:40:57.863Z,99424.69
2022-11-15T21:43:24.013Z,99432.63
2022-11-15T21:45:50.138Z,99431.19
2022-11-15T21:48:16.291Z,99422.94
2022-11-15T21:50:42.437Z,99421.25
2022-11-15T21:53:08.572Z,99421.66
2022-11-15T21:55:34.715Z,99422.50
2022-11-15T21:58:00.867Z,99413.09
2022-11-15T22:00:27.011Z,99416.03
2022-11-15T22:02:53.162Z,99411.47
2022-11-15T22:05:19.268Z,99413.66
2022-11-15T22:07:45.528Z,99412.38
2022-11-15T22:10:11.664Z,99415.63
2022-11-15T22:12:38.214Z,99414.47
2022-11-15T22:15:04.380Z,99411.31
2022-11-15T22:17:30.509Z,99408.72
2022-11-15T22:19:56.625Z,99407.16
2022-11-15T22:22:22.779Z,99407.16
2022-11-15T22:24:48.905Z,99398.78
2022-11-15T22:27:15.063Z,99404.41
2022-11-15T22:29:41.179Z,99403.97
2022-11-15T22:32:07.313Z,99400.75
2022-11-15T22:34:33.463Z,99396.44
2022-11-15T22:37:20.018Z,99397.19
2022-11-15T22:39:45.698Z,99396.44
2022-11-15T22:42:11.850Z,99389.56
2022-11-15T22:44:37.991Z,99391.00
2022-11-15T22:47:04.115Z,99388.50
2022-11-15T22:49:30.222Z,99391.13
2022-11-15T22:51:56.379Z,99387.69
2022-11-15T22:54:22.544Z,99392.50
2022-11-15T22:56:48.686Z,99392.50
2022-11-15T22:59:14.807Z,99388.63
2022-11-15T23:01:40.989Z,99393.72
2022-11-15T23:04:07.211Z,99394.69
2022-11-15T23:06:33.564Z,99394.56
2022-11-15T23:08:59.752Z,99395.13
2022-11-15T23:11:25.875Z,99388.81
2022-11-15T23:13:52.042Z,99389.84
2022-11-15T23:16:18.212Z,99382.13
2022-11-15T23:18:44.330Z,99387.88
2022-11-15T23:21:10.463Z,99386.75
2022-11-15T23:23:36.617Z,99380.16
2022-11-15T23:26:02.931Z,99376.91
2022-11-15T23:28:29.061Z,99376.72
2022-11-15T23:30:55.202Z,99376.19
2022-11-15T23:33:21.310Z,99380.56
2022-11-15T23:35:47.451Z,99372.63
2022-11-15T23:38:13.596Z,99381.41
2022-11-15T23:40:39.769Z,99378.97
2022-11-15T23:43:06.067Z,99384.28
2022-11-15T23:45:32.222Z,99385.34
2022-11-15T23:48:01.278Z,99377.94
2022-11-15T23:50:27.862Z,99385.97
2022-11-15T23:52:54.003Z,99381.56
2022-11-15T23:55:20.156Z,99384.94
2022-11-15T23:57:46.283Z,99378.25
